sensor_id;sensor_type;location;lat;lon;timestamp;P1;durP1;ratioP1;P2;durP2;ratioP2
37231;SDS011;23125;48.156;15.954;2022-08-21T00:00:06;4.43;;;3.42;;
37231;SDS011;23125;48.156;15.954;2022-08-21T00:02:35;4.03;;;3.55;;
37231;SDS011;23125;48.156;15.954;2022-08-21T00:05:02;4.68;;;3.78;;
37231;SDS011;23125;48.156;15.954;2022-08-21T00:07:29;4.95;;;3.78;;
37231;SDS011;23125;48.156;15.954;2022-08-21T00:09:55;5.57;;;3.90;;
37231;SDS011;23125;48.156;15.954;2022-08-21T00:12:21;4.45;;;3.85;;
37231;SDS011;23125;48.156;15.954;2022-08-21T00:14:47;3.97;;;3.58;;
37231;SDS011;23125;48.156;15.954;2022-08-21T00:17:13;4.38;;;3.92;;
37231;SDS011;23125;48.156;15.954;2022-08-21T00:19:39;5.75;;;4.22;;
37231;SDS011;23125;48.156;15.954;2022-08-21T00:22:05;5.47;;;4.45;;
37231;SDS011;23125;48.156;15.954;2022-08-21T00:24:31;5.20;;;4.30;;
37231;SDS011;23125;48.156;15.954;2022-08-21T00:26:57;5.93;;;4.70;;
37231;SDS011;23125;48.156;15.954;2022-08-21T00:29:24;5.78;;;4.22;;
37231;SDS011;23125;48.156;15.954;2022-08-21T00:31:50;4.72;;;4.10;;
37231;SDS011;23125;48.156;15.954;2022-08-21T00:34:15;5.35;;;4.35;;
37231;SDS011;23125;48.156;15.954;2022-08-21T00:36:41;5.35;;;4.28;;
37231;SDS011;23125;48.156;15.954;2022-08-21T00:39:08;5.25;;;4.55;;
37231;SDS011;23125;48.156;15.954;2022-08-21T00:41:35;5.45;;;4.57;;
37231;SDS011;23125;48.156;15.954;2022-08-21T00:44:02;5.28;;;4.38;;
37231;SDS011;23125;48.156;15.954;2022-08-21T00:46:29;6.35;;;5.03;;
37231;SDS011;23125;48.156;15.954;2022-08-21T00:48:55;5.05;;;4.47;;
37231;SDS011;23125;48.156;15.954;2022-08-21T00:51:23;5.07;;;4.43;;
37231;SDS011;23125;48.156;15.954;2022-08-21T00:54:08;5.25;;;4.25;;
37231;SDS011;23125;48.156;15.954;2022-08-21T00:56:36;4.45;;;3.70;;
37231;SDS011;23125;48.156;15.954;2022-08-21T00:59:02;5.00;;;4.13;;
37231;SDS011;23125;48.156;15.954;2022-08-21T01:01:29;4.90;;;4.07;;
37231;SDS011;23125;48.156;15.954;2022-08-21T01:03:55;5.95;;;4.35;;
37231;SDS011;23125;48.156;15.954;2022-08-21T01:06:20;4.60;;;4.00;;
37231;SDS011;23125;48.156;15.954;2022-08-21T01:08:46;5.68;;;4.43;;
37231;SDS011;23125;48.156;15.954;2022-08-21T01:11:14;4.82;;;4.25;;
37231;SDS011;23125;48.156;15.954;2022-08-21T01:13:41;4.90;;;4.07;;
37231;SDS011;23125;48.156;15.954;2022-08-21T01:16:11;4.70;;;3.65;;
37231;SDS011;23125;48.156;15.954;2022-08-21T01:18:38;4.90;;;4.00;;
37231;SDS011;23125;48.156;15.954;2022-08-21T01:21:09;4.50;;;4.10;;
37231;SDS011;23125;48.156;15.954;2022-08-21T01:23:43;6.25;;;4.35;;
37231;SDS011;23125;48.156;15.954;2022-08-21T01:26:11;4.77;;;4.27;;
37231;SDS011;23125;48.156;15.954;2022-08-21T01:28:42;4.75;;;3.70;;
37231;SDS011;23125;48.156;15.954;2022-08-21T01:31:14;4.88;;;4.30;;
37231;SDS011;23125;48.156;15.954;2022-08-21T01:33:42;5.18;;;4.25;;
37231;SDS011;23125;48.156;15.954;2022-08-21T01:36:08;5.68;;;4.07;;
37231;SDS011;23125;48.156;15.954;2022-08-21T01:38:34;4.95;;;4.30;;
37231;SDS011;23125;48.156;15.954;2022-08-21T01:41:01;4.57;;;3.55;;
37231;SDS011;23125;48.156;15.954;2022-08-21T01:43:26;4.35;;;3.67;;
37231;SDS011;23125;48.156;15.954;2022-08-21T01:45:52;5.18;;;4.05;;
37231;SDS011;23125;48.156;15.954;2022-08-21T01:48:18;4.38;;;3.90;;
37231;SDS011;23125;48.156;15.954;2022-08-21T01:50:44;5.10;;;3.85;;
37231;SDS011;23125;48.156;15.954;2022-08-21T01:53:10;5.40;;;3.78;;
37231;SDS011;23125;48.156;15.954;2022-08-21T01:55:36;4.45;;;3.70;;
37231;SDS011;23125;48.156;15.954;2022-08-21T01:58:02;5.18;;;4.43;;
37231;SDS011;23125;48.156;15.954;2022-08-21T02:00:28;4.95;;;4.35;;
37231;SDS011;23125;48.156;15.954;2022-08-21T02:02:54;4.75;;;4.25;;
37231;SDS011;23125;48.156;15.954;2022-08-21T02:05:21;4.90;;;4.20;;
37231;SDS011;23125;48.156;15.954;2022-08-21T02:07:48;5.45;;;3.92;;
37231;SDS011;23125;48.156;15.954;2022-08-21T02:10:18;7.22;;;3.80;;
37231;SDS011;23125;48.156;15.954;2022-08-21T02:12:46;4.57;;;3.65;;
37231;SDS011;23125;48.156;15.954;2022-08-21T02:15:13;4.35;;;3.80;;
37231;SDS011;23125;48.156;15.954;2022-08-21T02:17:41;5.07;;;4.53;;
37231;SDS011;23125;48.156;15.954;2022-08-21T02:20:09;5.32;;;4.22;;
37231;SDS011;23125;48.156;15.954;2022-08-21T02:22:36;5.00;;;4.45;;
37231;SDS011;23125;48.156;15.954;2022-08-21T02:25:03;4.85;;;4.13;;
37231;SDS011;23125;48.156;15.954;2022-08-21T02:27:29;4.68;;;4.10;;
37231;SDS011;23125;48.156;15.954;2022-08-21T02:30:02;5.40;;;4.70;;
37231;SDS011;23125;48.156;15.954;2022-08-21T02:32:28;4.88;;;4.07;;
37231;SDS011;23125;48.156;15.954;2022-08-21T02:34:54;5.72;;;4.60;;
37231;SDS011;23125;48.156;15.954;2022-08-21T02:37:20;7.15;;;5.65;;
37231;SDS011;23125;48.156;15.954;2022-08-21T02:39:46;6.20;;;5.30;;
37231;SDS011;23125;48.156;15.954;2022-08-21T02:42:11;7.32;;;5.57;;
37231;SDS011;23125;48.156;15.954;2022-08-21T02:44:37;7.68;;;5.63;;
37231;SDS011;23125;48.156;15.954;2022-08-21T02:47:03;7.45;;;5.85;;
37231;SDS011;23125;48.156;15.954;2022-08-21T02:49:29;6.50;;;5.43;;
37231;SDS011;23125;48.156;15.954;2022-08-21T02:51:55;6.55;;;5.35;;
37231;SDS011;23125;48.156;15.954;2022-08-21T02:54:21;6.70;;;5.28;;
37231;SDS011;23125;48.156;15.954;2022-08-21T02:56:47;7.35;;;5.72;;
37231;SDS011;23125;48.156;15.954;2022-08-21T02:59:12;5.45;;;4.65;;
37231;SDS011;23125;48.156;15.954;2022-08-21T03:01:38;5.93;;;4.93;;
37231;SDS011;23125;48.156;15.954;2022-08-21T03:04:04;5.18;;;4.63;;
37231;SDS011;23125;48.156;15.954;2022-08-21T03:06:30;5.70;;;4.70;;
37231;SDS011;23125;48.156;15.954;2022-08-21T03:08:56;5.10;;;4.32;;
37231;SDS011;23125;48.156;15.954;2022-08-21T03:11:22;5.65;;;4.82;;
37231;SDS011;23125;48.156;15.954;2022-08-21T03:13:48;6.47;;;4.85;;
37231;SDS011;23125;48.156;15.954;2022-08-21T03:16:14;5.60;;;4.07;;
37231;SDS011;23125;48.156;15.954;2022-08-21T03:18:40;5.30;;;4.60;;
37231;SDS011;23125;48.156;15.954;2022-08-21T03:21:06;6.15;;;4.57;;
37231;SDS011;23125;48.156;15.954;2022-08-21T03:23:32;5.20;;;4.43;;
37231;SDS011;23125;48.156;15.954;2022-08-21T03:25:58;6.22;;;4.70;;
37231;SDS011;23125;48.156;15.954;2022-08-21T03:28:24;6.18;;;5.43;;
37231;SDS011;23125;48.156;15.954;2022-08-21T03:30:51;5.57;;;4.97;;
37231;SDS011;23125;48.156;15.954;2022-08-21T03:33:18;5.93;;;5.25;;
37231;SDS011;23125;48.156;15.954;2022-08-21T03:35:45;6.25;;;4.90;;
37231;SDS011;23125;48.156;15.954;2022-08-21T03:38:14;7.13;;;5.15;;
37231;SDS011;23125;48.156;15.954;2022-08-21T03:40:41;5.70;;;4.43;;
37231;SDS011;23125;48.156;15.954;2022-08-21T03:43:08;6.47;;;5.00;;
37231;SDS011;23125;48.156;15.954;2022-08-21T03:45:35;4.97;;;4.20;;
37231;SDS011;23125;48.156;15.954;2022-08-21T03:48:03;4.40;;;3.45;;
37231;SDS011;23125;48.156;15.954;2022-08-21T03:50:33;4.95;;;3.83;;
37231;SDS011;23125;48.156;15.954;2022-08-21T03:53:02;5.85;;;3.70;;
37231;SDS011;23125;48.156;15.954;2022-08-21T03:55:29;5.00;;;3.70;;
37231;SDS011;23125;48.156;15.954;2022-08-21T03:57:55;4.97;;;3.63;;
37231;SDS011;23125;48.156;15.954;2022-08-21T04:00:21;4.35;;;3.50;;
37231;SDS011;23125;48.156;15.954;2022-08-21T04:02:48;4.80;;;3.95;;
37231;SDS011;23125;48.156;15.954;2022-08-21T04:05:15;4.60;;;3.60;;
37231;SDS011;23125;48.156;15.954;2022-08-21T04:07:58;4.72;;;3.63;;
37231;SDS011;23125;48.156;15.954;2022-08-21T04:10:30;3.65;;;2.83;;
37231;SDS011;23125;48.156;15.954;2022-08-21T04:12:59;5.07;;;3.40;;
37231;SDS011;23125;48.156;15.954;2022-08-21T04:15:26;3.58;;;2.90;;
37231;SDS011;23125;48.156;15.954;2022-08-21T04:17:53;5.03;;;3.42;;
37231;SDS011;23125;48.156;15.954;2022-08-21T04:20:20;3.88;;;3.10;;
37231;SDS011;23125;48.156;15.954;2022-08-21T04:22:47;4.13;;;3.38;;
37231;SDS011;23125;48.156;15.954;2022-08-21T04:25:15;4.80;;;2.88;;
37231;SDS011;23125;48.156;15.954;2022-08-21T04:27:43;3.28;;;2.63;;
37231;SDS011;23125;48.156;15.954;2022-08-21T04:30:09;3.83;;;2.40;;
37231;SDS011;23125;48.156;15.954;2022-08-21T04:32:41;2.55;;;2.22;;
37231;SDS011;23125;48.156;15.954;2022-08-21T04:35:13;3.85;;;2.42;;
37231;SDS011;23125;48.156;15.954;2022-08-21T04:37:41;3.08;;;2.30;;
37231;SDS011;23125;48.156;15.954;2022-08-21T04:40:07;2.80;;;2.28;;
37231;SDS011;23125;48.156;15.954;2022-08-21T04:42:40;2.80;;;2.50;;
37231;SDS011;23125;48.156;15.954;2022-08-21T04:45:19;3.65;;;2.47;;
37231;SDS011;23125;48.156;15.954;2022-08-21T04:47:54;2.53;;;2.10;;
37231;SDS011;23125;48.156;15.954;2022-08-21T04:50:22;4.10;;;2.50;;
37231;SDS011;23125;48.156;15.954;2022-08-21T04:52:55;3.22;;;2.70;;
37231;SDS011;23125;48.156;15.954;2022-08-21T04:55:21;3.70;;;2.60;;
37231;SDS011;23125;48.156;15.954;2022-08-21T04:57:49;3.28;;;2.15;;
37231;SDS011;23125;48.156;15.954;2022-08-21T05:00:19;3.03;;;2.50;;
37231;SDS011;23125;48.156;15.954;2022-08-21T05:02:46;2.67;;;2.33;;
37231;SDS011;23125;48.156;15.954;2022-08-21T05:05:14;2.50;;;2.25;;
37231;SDS011;23125;48.156;15.954;2022-08-21T05:07:41;2.38;;;2.17;;
37231;SDS011;23125;48.156;15.954;2022-08-21T05:10:09;3.35;;;2.40;;
37231;SDS011;23125;48.156;15.954;2022-08-21T05:12:36;9.85;;;7.35;;
37231;SDS011;23125;48.156;15.954;2022-08-21T05:15:03;10.95;;;7.80;;
37231;SDS011;23125;48.156;15.954;2022-08-21T05:17:29;3.33;;;2.90;;
37231;SDS011;23125;48.156;15.954;2022-08-21T05:19:55;3.30;;;2.42;;
37231;SDS011;23125;48.156;15.954;2022-08-21T05:22:21;3.90;;;2.28;;
37231;SDS011;23125;48.156;15.954;2022-08-21T05:24:49;2.55;;;2.30;;
37231;SDS011;23125;48.156;15.954;2022-08-21T05:27:15;5.70;;;2.38;;
37231;SDS011;23125;48.156;15.954;2022-08-21T05:29:42;2.47;;;2.17;;
37231;SDS011;23125;48.156;15.954;2022-08-21T05:32:09;3.88;;;2.20;;
37231;SDS011;23125;48.156;15.954;2022-08-21T05:34:37;2.50;;;1.95;;
37231;SDS011;23125;48.156;15.954;2022-08-21T05:37:03;2.83;;;2.25;;
37231;SDS011;23125;48.156;15.954;2022-08-21T05:39:29;2.70;;;2.20;;
37231;SDS011;23125;48.156;15.954;2022-08-21T05:41:56;8.18;;;4.72;;
37231;SDS011;23125;48.156;15.954;2022-08-21T05:44:22;7.88;;;4.55;;
37231;SDS011;23125;48.156;15.954;2022-08-21T05:46:48;14.25;;;7.55;;
37231;SDS011;23125;48.156;15.954;2022-08-21T05:49:13;4.07;;;2.60;;
37231;SDS011;23125;48.156;15.954;2022-08-21T05:51:40;3.28;;;2.58;;
37231;SDS011;23125;48.156;15.954;2022-08-21T05:54:06;2.63;;;2.00;;
37231;SDS011;23125;48.156;15.954;2022-08-21T05:56:32;2.88;;;2.25;;
37231;SDS011;23125;48.156;15.954;2022-08-21T05:58:58;3.30;;;2.22;;
37231;SDS011;23125;48.156;15.954;2022-08-21T06:01:24;2.97;;;2.47;;
37231;SDS011;23125;48.156;15.954;2022-08-21T06:03:50;2.92;;;2.35;;
37231;SDS011;23125;48.156;15.954;2022-08-21T06:06:16;2.47;;;2.25;;
37231;SDS011;23125;48.156;15.954;2022-08-21T06:08:42;3.25;;;2.17;;
37231;SDS011;23125;48.156;15.954;2022-08-21T06:11:08;3.45;;;2.15;;
37231;SDS011;23125;48.156;15.954;2022-08-21T06:13:35;3.03;;;2.40;;
37231;SDS011;23125;48.156;15.954;2022-08-21T06:16:06;2.63;;;2.25;;
37231;SDS011;23125;48.156;15.954;2022-08-21T06:18:34;2.50;;;2.03;;
37231;SDS011;23125;48.156;15.954;2022-08-21T06:21:02;2.53;;;2.13;;
37231;SDS011;23125;48.156;15.954;2022-08-21T06:23:28;2.80;;;2.40;;
37231;SDS011;23125;48.156;15.954;2022-08-21T06:25:54;2.72;;;2.33;;
37231;SDS011;23125;48.156;15.954;2022-08-21T06:28:19;3.13;;;2.13;;
37231;SDS011;23125;48.156;15.954;2022-08-21T06:30:45;2.50;;;2.15;;
37231;SDS011;23125;48.156;15.954;2022-08-21T06:33:11;2.13;;;1.73;;
37231;SDS011;23125;48.156;15.954;2022-08-21T06:35:37;1.95;;;1.63;;
37231;SDS011;23125;48.156;15.954;2022-08-21T06:38:03;2.60;;;2.10;;
37231;SDS011;23125;48.156;15.954;2022-08-21T06:40:29;2.53;;;2.10;;
37231;SDS011;23125;48.156;15.954;2022-08-21T06:42:56;2.42;;;2.15;;
37231;SDS011;23125;48.156;15.954;2022-08-21T06:45:23;2.42;;;1.85;;
37231;SDS011;23125;48.156;15.954;2022-08-21T06:47:50;2.53;;;2.10;;
37231;SDS011;23125;48.156;15.954;2022-08-21T06:50:16;3.53;;;2.35;;
37231;SDS011;23125;48.156;15.954;2022-08-21T06:52:42;2.92;;;2.05;;
37231;SDS011;23125;48.156;15.954;2022-08-21T06:55:09;2.38;;;1.80;;
37231;SDS011;23125;48.156;15.954;2022-08-21T06:57:36;2.40;;;2.20;;
37231;SDS011;23125;48.156;15.954;2022-08-21T07:00:05;2.58;;;2.00;;
37231;SDS011;23125;48.156;15.954;2022-08-21T07:02:34;2.67;;;2.22;;
37231;SDS011;23125;48.156;15.954;2022-08-21T07:05:00;2.75;;;2.15;;
37231;SDS011;23125;48.156;15.954;2022-08-21T07:07:26;3.47;;;2.10;;
37231;SDS011;23125;48.156;15.954;2022-08-21T07:09:52;2.60;;;2.15;;
37231;SDS011;23125;48.156;15.954;2022-08-21T07:12:18;2.65;;;2.13;;
37231;SDS011;23125;48.156;15.954;2022-08-21T07:14:44;3.30;;;2.60;;
37231;SDS011;23125;48.156;15.954;2022-08-21T07:17:10;3.33;;;2.30;;
37231;SDS011;23125;48.156;15.954;2022-08-21T07:19:36;3.13;;;2.50;;
37231;SDS011;23125;48.156;15.954;2022-08-21T07:22:02;3.15;;;2.17;;
37231;SDS011;23125;48.156;15.954;2022-08-21T07:24:28;3.53;;;2.70;;
37231;SDS011;23125;48.156;15.954;2022-08-21T07:26:55;2.70;;;2.30;;
37231;SDS011;23125;48.156;15.954;2022-08-21T07:29:21;3.17;;;2.85;;
37231;SDS011;23125;48.156;15.954;2022-08-21T07:31:47;2.67;;;2.42;;
37231;SDS011;23125;48.156;15.954;2022-08-21T07:34:13;3.58;;;2.30;;
37231;SDS011;23125;48.156;15.954;2022-08-21T07:36:39;3.60;;;2.90;;
37231;SDS011;23125;48.156;15.954;2022-08-21T07:39:04;5.28;;;3.50;;
37231;SDS011;23125;48.156;15.954;2022-08-21T07:41:30;3.80;;;3.08;;
37231;SDS011;23125;48.156;15.954;2022-08-21T07:43:57;4.00;;;3.25;;
37231;SDS011;23125;48.156;15.954;2022-08-21T07:46:24;6.32;;;3.40;;
37231;SDS011;23125;48.156;15.954;2022-08-21T07:48:51;3.05;;;2.67;;
37231;SDS011;23125;48.156;15.954;2022-08-21T07:51:17;4.90;;;3.35;;
37231;SDS011;23125;48.156;15.954;2022-08-21T07:53:51;3.25;;;2.80;;
37231;SDS011;23125;48.156;15.954;2022-08-21T07:56:19;3.20;;;2.75;;
37231;SDS011;23125;48.156;15.954;2022-08-21T07:58:46;4.07;;;3.15;;
37231;SDS011;23125;48.156;15.954;2022-08-21T08:01:13;3.17;;;2.88;;
37231;SDS011;23125;48.156;15.954;2022-08-21T08:03:39;3.58;;;3.28;;
37231;SDS011;23125;48.156;15.954;2022-08-21T08:06:06;4.15;;;3.35;;
37231;SDS011;23125;48.156;15.954;2022-08-21T08:08:39;3.75;;;2.72;;
37231;SDS011;23125;48.156;15.954;2022-08-21T08:11:07;3.40;;;3.08;;
37231;SDS011;23125;48.156;15.954;2022-08-21T08:13:42;3.53;;;3.05;;
37231;SDS011;23125;48.156;15.954;2022-08-21T08:16:13;4.05;;;3.03;;
37231;SDS011;23125;48.156;15.954;2022-08-21T08:18:39;3.25;;;2.90;;
37231;SDS011;23125;48.156;15.954;2022-08-21T08:21:07;3.10;;;2.83;;
37231;SDS011;23125;48.156;15.954;2022-08-21T08:23:35;3.10;;;2.50;;
37231;SDS011;23125;48.156;15.954;2022-08-21T08:26:01;2.92;;;2.42;;
37231;SDS011;23125;48.156;15.954;2022-08-21T08:30:58;2.63;;;2.22;;
37231;SDS011;23125;48.156;15.954;2022-08-21T08:33:25;3.50;;;2.60;;
37231;SDS011;23125;48.156;15.954;2022-08-21T08:35:51;5.68;;;2.33;;
37231;SDS011;23125;48.156;15.954;2022-08-21T08:38:18;3.30;;;2.45;;
37231;SDS011;23125;48.156;15.954;2022-08-21T08:41:01;3.90;;;2.30;;
37231;SDS011;23125;48.156;15.954;2022-08-21T08:43:44;2.53;;;2.20;;
37231;SDS011;23125;48.156;15.954;2022-08-21T08:46:18;2.65;;;2.45;;
37231;SDS011;23125;48.156;15.954;2022-08-21T08:48:59;3.13;;;2.33;;
37231;SDS011;23125;48.156;15.954;2022-08-21T08:51:41;2.47;;;2.13;;
37231;SDS011;23125;48.156;15.954;2022-08-21T08:54:15;3.22;;;2.20;;
37231;SDS011;23125;48.156;15.954;2022-08-21T08:56:47;3.80;;;2.15;;
37231;SDS011;23125;48.156;15.954;2022-08-21T08:59:15;2.03;;;1.83;;
37231;SDS011;23125;48.156;15.954;2022-08-21T09:01:45;2.53;;;1.85;;
37231;SDS011;23125;48.156;15.954;2022-08-21T09:04:12;4.18;;;1.80;;
37231;SDS011;23125;48.156;15.954;2022-08-21T09:06:52;2.13;;;1.83;;
37231;SDS011;23125;48.156;15.954;2022-08-21T09:09:30;2.47;;;2.00;;
37231;SDS011;23125;48.156;15.954;2022-08-21T09:17:39;3.00;;;2.20;;
37231;SDS011;23125;48.156;15.954;2022-08-21T09:20:21;2.42;;;2.22;;
37231;SDS011;23125;48.156;15.954;2022-08-21T09:23:32;3.47;;;2.42;;
37231;SDS011;23125;48.156;15.954;2022-08-21T09:28:32;2.05;;;1.85;;
37231;SDS011;23125;48.156;15.954;2022-08-21T09:31:06;2.20;;;1.63;;
37231;SDS011;23125;48.156;15.954;2022-08-21T09:33:34;2.97;;;1.77;;
37231;SDS011;23125;48.156;15.954;2022-08-21T09:36:00;2.08;;;1.88;;
37231;SDS011;23125;48.156;15.954;2022-08-21T09:38:29;2.35;;;1.98;;
37231;SDS011;23125;48.156;15.954;2022-08-21T09:41:07;2.67;;;1.80;;
37231;SDS011;23125;48.156;15.954;2022-08-21T09:43:36;3.30;;;2.20;;
37231;SDS011;23125;48.156;15.954;2022-08-21T09:46:22;3.38;;;2.20;;
37231;SDS011;23125;48.156;15.954;2022-08-21T09:48:50;2.90;;;2.22;;
37231;SDS011;23125;48.156;15.954;2022-08-21T09:51:32;2.65;;;2.10;;
37231;SDS011;23125;48.156;15.954;2022-08-21T09:56:36;3.35;;;2.38;;
37231;SDS011;23125;48.156;15.954;2022-08-21T09:59:35;2.50;;;2.05;;
37231;SDS011;23125;48.156;15.954;2022-08-21T10:04:50;2.70;;;2.20;;
37231;SDS011;23125;48.156;15.954;2022-08-21T10:07:19;2.78;;;2.17;;
37231;SDS011;23125;48.156;15.954;2022-08-21T10:09:57;4.25;;;2.20;;
37231;SDS011;23125;48.156;15.954;2022-08-21T10:12:33;2.80;;;2.22;;
37231;SDS011;23125;48.156;15.954;2022-08-21T10:15:24;2.65;;;2.22;;
37231;SDS011;23125;48.156;15.954;2022-08-21T10:20:25;2.72;;;1.90;;
37231;SDS011;23125;48.156;15.954;2022-08-21T10:31:09;3.47;;;2.45;;
37231;SDS011;23125;48.156;15.954;2022-08-21T10:33:41;2.28;;;2.08;;
37231;SDS011;23125;48.156;15.954;2022-08-21T10:36:20;2.05;;;1.73;;
37231;SDS011;23125;48.156;15.954;2022-08-21T10:38:53;2.75;;;2.00;;
37231;SDS011;23125;48.156;15.954;2022-08-21T10:46:47;2.35;;;2.05;;
37231;SDS011;23125;48.156;15.954;2022-08-21T10:51:54;2.83;;;1.88;;
37231;SDS011;23125;48.156;15.954;2022-08-21T10:57:29;2.35;;;1.73;;
37231;SDS011;23125;48.156;15.954;2022-08-21T11:03:18;2.28;;;1.90;;
37231;SDS011;23125;48.156;15.954;2022-08-21T11:06:19;1.80;;;1.63;;
37231;SDS011;23125;48.156;15.954;2022-08-21T11:08:56;3.65;;;1.75;;
37231;SDS011;23125;48.156;15.954;2022-08-21T11:14:56;2.80;;;1.83;;
37231;SDS011;23125;48.156;15.954;2022-08-21T11:17:34;3.95;;;1.92;;
37231;SDS011;23125;48.156;15.954;2022-08-21T11:20:21;2.92;;;2.05;;
37231;SDS011;23125;48.156;15.954;2022-08-21T11:22:56;2.55;;;1.80;;
37231;SDS011;23125;48.156;15.954;2022-08-21T11:25:35;1.58;;;1.38;;
37231;SDS011;23125;48.156;15.954;2022-08-21T11:28:15;1.83;;;1.35;;
37231;SDS011;23125;48.156;15.954;2022-08-21T11:30:47;2.47;;;1.55;;
37231;SDS011;23125;48.156;15.954;2022-08-21T11:36:25;1.17;;;0.95;;
37231;SDS011;23125;48.156;15.954;2022-08-21T11:44:22;2.20;;;1.10;;
37231;SDS011;23125;48.156;15.954;2022-08-21T11:47:33;1.92;;;1.23;;
37231;SDS011;23125;48.156;15.954;2022-08-21T11:52:46;1.30;;;1.00;;
37231;SDS011;23125;48.156;15.954;2022-08-21T11:55:26;1.55;;;1.40;;
37231;SDS011;23125;48.156;15.954;2022-08-21T11:58:06;1.42;;;1.20;;
37231;SDS011;23125;48.156;15.954;2022-08-21T12:00:42;2.42;;;1.38;;
37231;SDS011;23125;48.156;15.954;2022-08-21T12:05:57;2.10;;;1.33;;
37231;SDS011;23125;48.156;15.954;2022-08-21T12:13:55;1.83;;;1.42;;
37231;SDS011;23125;48.156;15.954;2022-08-21T12:16:30;1.92;;;1.02;;
37231;SDS011;23125;48.156;15.954;2022-08-21T12:19:02;4.30;;;1.50;;
37231;SDS011;23125;48.156;15.954;2022-08-21T12:21:32;3.75;;;3.45;;
37231;SDS011;23125;48.156;15.954;2022-08-21T12:24:01;1.60;;;1.45;;
37231;SDS011;23125;48.156;15.954;2022-08-21T12:26:49;4.50;;;3.42;;
37231;SDS011;23125;48.156;15.954;2022-08-21T12:29:21;6.65;;;4.07;;
37231;SDS011;23125;48.156;15.954;2022-08-21T12:31:52;16.73;;;12.63;;
37231;SDS011;23125;48.156;15.954;2022-08-21T12:34:22;4.13;;;3.30;;
37231;SDS011;23125;48.156;15.954;2022-08-21T12:36:57;5.97;;;5.38;;
37231;SDS011;23125;48.156;15.954;2022-08-21T12:39:27;2.78;;;1.98;;
37231;SDS011;23125;48.156;15.954;2022-08-21T12:41:58;1.45;;;1.17;;
37231;SDS011;23125;48.156;15.954;2022-08-21T12:44:38;2.55;;;1.30;;
37231;SDS011;23125;48.156;15.954;2022-08-21T12:50:09;3.92;;;1.70;;
37231;SDS011;23125;48.156;15.954;2022-08-21T12:52:42;1.30;;;1.10;;
37231;SDS011;23125;48.156;15.954;2022-08-21T12:55:14;2.55;;;1.50;;
37231;SDS011;23125;48.156;15.954;2022-08-21T12:57:42;1.40;;;1.00;;
37231;SDS011;23125;48.156;15.954;2022-08-21T13:00:09;3.70;;;1.90;;
37231;SDS011;23125;48.156;15.954;2022-08-21T13:02:39;1.65;;;1.15;;
37231;SDS011;23125;48.156;15.954;2022-08-21T13:05:16;1.73;;;1.10;;
37231;SDS011;23125;48.156;15.954;2022-08-21T13:08:05;3.17;;;1.73;;
37231;SDS011;23125;48.156;15.954;2022-08-21T13:10:33;1.92;;;1.20;;
37231;SDS011;23125;48.156;15.954;2022-08-21T13:13:06;1.38;;;1.17;;
37231;SDS011;23125;48.156;15.954;2022-08-21T13:15:38;3.13;;;1.50;;
37231;SDS011;23125;48.156;15.954;2022-08-21T13:18:06;3.10;;;1.52;;
37231;SDS011;23125;48.156;15.954;2022-08-21T13:20:35;1.67;;;1.30;;
37231;SDS011;23125;48.156;15.954;2022-08-21T13:23:25;2.30;;;1.60;;
37231;SDS011;23125;48.156;15.954;2022-08-21T13:25:52;3.53;;;1.60;;
37231;SDS011;23125;48.156;15.954;2022-08-21T13:28:19;2.75;;;2.22;;
37231;SDS011;23125;48.156;15.954;2022-08-21T13:30:49;2.75;;;1.70;;
37231;SDS011;23125;48.156;15.954;2022-08-21T13:33:19;2.10;;;1.90;;
37231;SDS011;23125;48.156;15.954;2022-08-21T13:35:49;2.35;;;1.80;;
37231;SDS011;23125;48.156;15.954;2022-08-21T13:38:24;3.92;;;3.15;;
37231;SDS011;23125;48.156;15.954;2022-08-21T13:40:54;3.13;;;2.25;;
37231;SDS011;23125;48.156;15.954;2022-08-21T13:43:30;7.63;;;6.20;;
37231;SDS011;23125;48.156;15.954;2022-08-21T13:45:57;17.00;;;10.63;;
37231;SDS011;23125;48.156;15.954;2022-08-21T13:48:26;10.05;;;5.80;;
37231;SDS011;23125;48.156;15.954;2022-08-21T13:50:56;3.05;;;2.00;;
37231;SDS011;23125;48.156;15.954;2022-08-21T13:53:34;2.53;;;2.20;;
37231;SDS011;23125;48.156;15.954;2022-08-21T13:56:03;4.70;;;2.10;;
37231;SDS011;23125;48.156;15.954;2022-08-21T13:58:47;4.20;;;2.15;;
37231;SDS011;23125;48.156;15.954;2022-08-21T14:01:32;3.53;;;2.10;;
37231;SDS011;23125;48.156;15.954;2022-08-21T14:04:06;1.98;;;1.77;;
37231;SDS011;23125;48.156;15.954;2022-08-21T14:06:46;8.43;;;4.40;;
37231;SDS011;23125;48.156;15.954;2022-08-21T14:09:23;5.82;;;3.15;;
37231;SDS011;23125;48.156;15.954;2022-08-21T14:11:54;4.25;;;3.03;;
37231;SDS011;23125;48.156;15.954;2022-08-21T14:14:23;2.33;;;2.00;;
37231;SDS011;23125;48.156;15.954;2022-08-21T14:16:53;5.90;;;3.33;;
37231;SDS011;23125;48.156;15.954;2022-08-21T14:19:26;7.32;;;6.63;;
37231;SDS011;23125;48.156;15.954;2022-08-21T14:22:20;3.00;;;2.78;;
37231;SDS011;23125;48.156;15.954;2022-08-21T14:24:47;3.60;;;2.50;;
37231;SDS011;23125;48.156;15.954;2022-08-21T14:27:15;5.45;;;2.78;;
37231;SDS011;23125;48.156;15.954;2022-08-21T14:29:43;2.85;;;2.15;;
37231;SDS011;23125;48.156;15.954;2022-08-21T14:32:12;3.58;;;2.08;;
37231;SDS011;23125;48.156;15.954;2022-08-21T14:34:40;3.20;;;2.55;;
37231;SDS011;23125;48.156;15.954;2022-08-21T14:37:06;2.95;;;2.35;;
37231;SDS011;23125;48.156;15.954;2022-08-21T14:39:32;3.20;;;2.90;;
37231;SDS011;23125;48.156;15.954;2022-08-21T14:41:58;2.95;;;2.70;;
37231;SDS011;23125;48.156;15.954;2022-08-21T14:44:25;18.15;;;12.13;;
37231;SDS011;23125;48.156;15.954;2022-08-21T14:46:51;10.00;;;6.97;;
37231;SDS011;23125;48.156;15.954;2022-08-21T14:49:20;7.60;;;6.85;;
37231;SDS011;23125;48.156;15.954;2022-08-21T14:51:47;5.15;;;4.68;;
37231;SDS011;23125;48.156;15.954;2022-08-21T14:54:18;3.03;;;2.70;;
37231;SDS011;23125;48.156;15.954;2022-08-21T14:56:44;6.47;;;4.53;;
37231;SDS011;23125;48.156;15.954;2022-08-21T14:59:10;6.00;;;4.60;;
37231;SDS011;23125;48.156;15.954;2022-08-21T15:01:36;3.22;;;2.88;;
37231;SDS011;23125;48.156;15.954;2022-08-21T15:04:03;2.70;;;2.20;;
37231;SDS011;23125;48.156;15.954;2022-08-21T15:06:30;2.53;;;1.90;;
37231;SDS011;23125;48.156;15.954;2022-08-21T15:08:56;4.25;;;2.78;;
37231;SDS011;23125;48.156;15.954;2022-08-21T15:11:22;4.82;;;2.65;;
37231;SDS011;23125;48.156;15.954;2022-08-21T15:13:52;4.22;;;2.30;;
37231;SDS011;23125;48.156;15.954;2022-08-21T15:16:21;6.55;;;2.78;;
37231;SDS011;23125;48.156;15.954;2022-08-21T15:18:48;7.25;;;4.70;;
37231;SDS011;23125;48.156;15.954;2022-08-21T15:21:14;5.30;;;3.10;;
37231;SDS011;23125;48.156;15.954;2022-08-21T15:23:40;2.60;;;2.30;;
37231;SDS011;23125;48.156;15.954;2022-08-21T15:26:06;2.97;;;2.15;;
37231;SDS011;23125;48.156;15.954;2022-08-21T15:28:33;4.43;;;2.22;;
37231;SDS011;23125;48.156;15.954;2022-08-21T15:31:00;3.63;;;2.22;;
37231;SDS011;23125;48.156;15.954;2022-08-21T15:33:26;3.13;;;2.20;;
37231;SDS011;23125;48.156;15.954;2022-08-21T15:35:52;3.72;;;3.13;;
37231;SDS011;23125;48.156;15.954;2022-08-21T15:38:18;4.15;;;3.25;;
37231;SDS011;23125;48.156;15.954;2022-08-21T15:40:44;3.00;;;2.22;;
37231;SDS011;23125;48.156;15.954;2022-08-21T15:43:16;3.55;;;2.72;;
37231;SDS011;23125;48.156;15.954;2022-08-21T15:45:57;3.45;;;2.47;;
37231;SDS011;23125;48.156;15.954;2022-08-21T15:48:24;4.10;;;2.85;;
37231;SDS011;23125;48.156;15.954;2022-08-21T15:50:51;2.90;;;2.40;;
37231;SDS011;23125;48.156;15.954;2022-08-21T15:53:17;3.20;;;2.70;;